• Join FlightAware (Why Join?)
  • Login
  • US Flag 
02:05PM EDT


 

Airport Tracker/Info


-or-


 

Live Flight TrackerFlight Track Log ✈ N960DL ✈ 15-Apr-2013 ✈ KDSM - KATL

Flight Track Log - Related Links

Times and Time Zones

All times are in EDT time to prevent confusion due to time zone crossing. See the N960DL flight status page for this flight to view local times or setup timezone preferences in your user account.

Time Position Orientation Groundspeed Altitude Reporting Facility
EDT Latitude Longitude Course Direction KTS MPH feet Rate Location/Type
07:11AM 41.5075 -93.7031 137° Southeast 190 219 33,000  Level Chicago Center
07:12AM 41.4914 -93.7236 224° Southwest 196 226 3,400 -21,600 Descending Minneapolis Center
07:13AM 41.4314 -93.7053 167° South 247 284 6,000 2,640 Climbing Minneapolis Center
07:14AM 41.3781 -93.6133 128° Southeast 295 339 8,800 2,460 Climbing Minneapolis Center
07:15AM 41.3131 -93.5319 137° Southeast 318 366 11,000 1,920 Climbing Minneapolis Center
07:16AM 41.2428 -93.4428 136° Southeast 349 402 12,700 1,500 Climbing Minneapolis Center
07:17AM 41.0005 -93.0918 137° Southeast  Level FlightAware Approximate
07:17AM 41.1625 -93.3375 135° Southeast 406 467 14,100  Level Minneapolis Center
07:18AM 41.0814 -93.2292 135° Southeast 415 478 17,200 2,520 Climbing Minneapolis Center
07:19AM 41.0064 -93.1367 137° Southeast 412 474 19,300 1,740 Climbing Minneapolis Center
07:20AM 40.9208 -93.0275 136° Southeast 422 486 20,800 1,380 Climbing Minneapolis Center
07:21AM 40.8136 -92.8878 135° Southeast 441 507 22,400 1,680 Climbing Minneapolis Center
07:22AM 40.7389 -92.7900 135° Southeast 464 534 24,000 1,620 Climbing Chicago Center
07:23AM 40.6456 -92.6703 136° Southeast 467 537 25,100 1,080 Climbing Chicago Center
07:23AM 40.6075 -92.6208 135° Southeast 472 543 25,700 1,740 Climbing Kansas City Center
07:24AM 40.5114 -92.4994 136° Southeast 483 556 27,800 1,740 Climbing Kansas City Center
07:25AM 40.4192 -92.3831 136° Southeast 470 541 29,300 1,140 Climbing Kansas City Center
07:26AM 40.3219 -92.2603 136° Southeast 464 534 30,200 780 Climbing Kansas City Center
07:27AM 40.2278 -92.1406 136° Southeast 468 539 31,000 840 Climbing Kansas City Center
07:28AM 40.1361 -92.0111 133° Southeast 481 554 31,900 900 Climbing Kansas City Center
07:29AM 40.0456 -91.8811 132° Southeast 486 559 32,900 540 Climbing Kansas City Center
07:30AM 39.9561 -91.7533 132° Southeast 482 555 33,000  Climbing Kansas City Center
07:31AM 39.8678 -91.6247 132° Southeast 479 551 33,000  Level Kansas City Center
07:32AM 39.7781 -91.4939 132° Southeast 485 558 33,000  Level Kansas City Center
07:33AM 39.6706 -91.3403 132° Southeast 483 556 33,000  Level Kansas City Center
07:34AM 39.5933 -91.2272 132° Southeast 482 555 33,000  Level Kansas City Center
07:35AM 39.5036 -91.0972 132° Southeast 484 557 33,000  Level Kansas City Center
07:36AM 39.4119 -90.9697 133° Southeast 485 558 33,000  Level Kansas City Center
07:37AM 39.3203 -90.8411 133° Southeast 485 558 33,000  Level Kansas City Center
07:38AM 39.2083 -90.6858 133° Southeast 491 565 33,000  Level Kansas City Center
07:39AM 39.1156 -90.5558 133° Southeast 492 566 33,000  Level Kansas City Center
07:40AM 39.0228 -90.4278 133° Southeast 489 563 33,000  Level Kansas City Center
07:41AM 38.9294 -90.2989 133° Southeast 487 560 33,000  Level Kansas City Center
07:42AM 38.8439 -90.1836 134° Southeast 488 562 33,000  Level Kansas City Center
07:43AM 38.7494 -90.0553 133° Southeast 491 565 33,000  Level Kansas City Center
07:44AM 38.6444 -89.9111 133° Southeast 493 567 33,000  Level Kansas City Center
07:45AM 38.5511 -89.7853 133° Southeast 488 562 33,000  Level Kansas City Center
07:46AM 38.4489 -89.6486 134° Southeast 487 560 33,000  Level Kansas City Center
07:47AM 38.3564 -89.5236 133° Southeast 485 558 33,000  Level Kansas City Center
07:48AM 38.2636 -89.3994 134° Southeast 483 556 33,000  Level Kansas City Center
07:49AM 38.1717 -89.2767 134° Southeast 481 554 33,000  Level Kansas City Center
07:51AM 38.0797 -89.1519 133° Southeast 483 556 33,000  Level Kansas City Center
07:52AM 37.9933 -89.0394 134° Southeast 482 555 33,000  Level Kansas City Center
07:53AM 37.9011 -88.9169 134° Southeast 485 558 33,000  Level Kansas City Center
07:54AM 37.7969 -88.7783 134° Southeast 486 559 33,000  Level Kansas City Center
07:55AM 37.6936 -88.6472 135° Southeast 484 557 33,000  Level Kansas City Center
07:56AM 37.6000 -88.5258 134° Southeast 482 555 33,000  Level Kansas City Center
07:57AM 37.5133 -88.4122 134° Southeast 485 558 33,000  Level Kansas City Center
07:58AM 37.3997 -88.2683 135° Southeast 479 551 33,000  Level Memphis Center
07:59AM 37.3058 -88.1431 133° Southeast 479 551 33,000  Level Memphis Center
08:00AM 37.1969 -88.0056 135° Southeast 485 558 33,000  Level Memphis Center
08:01AM 37.1008 -87.8836 135° Southeast 492 566 33,000  Level Memphis Center
08:02AM 37.0156 -87.7769 135° Southeast 497 572 33,000  Level Memphis Center
08:03AM 36.9189 -87.6531 134° Southeast 497 572 33,000  Level Memphis Center
08:04AM 36.8267 -87.5342 134° Southeast 490 564 33,000  Level Memphis Center
08:05AM 36.7303 -87.4133 135° Southeast 490 564 33,000  Level Memphis Center
08:06AM 36.6336 -87.2956 136° Southeast 485 558 33,000  Level Memphis Center
08:07AM 36.5389 -87.1750 134° Southeast 485 558 33,000  Level Memphis Center
08:08AM 36.4439 -87.0575 135° Southeast 480 552 33,000  Level Memphis Center
08:09AM 36.3450 -86.9378 136° Southeast 480 552 33,000  Level Memphis Center
08:10AM 36.2478 -86.8186 135° Southeast 491 565 33,000  Level Memphis Center
08:11AM 36.1525 -86.6992 135° Southeast 496 571 33,000  Level Memphis Center
08:12AM 36.0453 -86.6014 144° Southeast 482 555 33,000  Level Memphis Center
08:14AM 35.7978 -86.4019 147° Southeast 467 537 33,000  Level Atlanta Center
08:15AM 35.6869 -86.3142 147° Southeast 477 549 33,000  Level Atlanta Center
08:16AM 35.5758 -86.2244 147° Southeast 477 549 33,000 -60 Level Atlanta Center
08:17AM 35.4769 -86.1503 149° Southeast 472 543 32,900 -1,080 Descending Atlanta Center
08:18AM 35.3556 -86.0506 146° Southeast 472 543 30,900 -1,620 Descending Atlanta Center
08:19AM 35.2356 -85.9839 156° South 477 549 29,700 -960 Descending Atlanta Center
08:20AM 35.1289 -85.9992 187° South 444 511 29,000 -900 Descending Atlanta Center
08:21AM 35.0164 -85.9917 177° South 422 486 27,900 -1,020 Descending Atlanta Center
08:22AM 34.9258 -85.9033 141° Southeast 400 460 27,000 -480 Descending Atlanta Center
08:23AM 34.8375 -85.8153 141° Southeast 395 455 27,000 -660 Level Atlanta Center
08:24AM 34.7511 -85.7250 139° Southeast 408 470 25,700 -1,440 Descending Atlanta Center
08:25AM 34.6689 -85.6400 140° Southeast 403 464 24,200 -1,020 Descending Atlanta Center
08:26AM 34.5864 -85.5553 140° Southeast 398 458 23,700 -1,140 Descending Atlanta Center
08:27AM 34.5058 -85.4731 140° Southeast 391 450 22,000 -1,680 Descending Atlanta Center
08:28AM 34.4275 -85.3911 139° Southeast 379 436 20,400 -1,680 Descending Atlanta Center
08:29AM 34.3511 -85.3119 139° Southeast 368 423 18,700 -1,620 Descending Atlanta Center
08:30AM 34.2769 -85.2381 141° Southeast 363 418 17,200 -1,620 Descending Atlanta Center
08:31AM 34.2025 -85.1614 140° Southeast 358 412 15,500 -1,800 Descending Atlanta Center
08:32AM 34.1342 -85.0828 136° Southeast 341 392 13,700 -1,320 Descending Atlanta Center
08:33AM 34.0681 -85.0067 136° Southeast 331 381 12,900 -1,020 Descending Atlanta Center
08:34AM 33.9892 -84.9608 154° Southeast 320 368 11,700 -1,380 Descending Atlanta Center
08:35AM 33.9100 -84.9250 159° South 309 356 10,200 -1,380 Descending Atlanta Center
08:36AM 33.8286 -84.9164 175° South 299 344 9,000 -1,080 Descending Atlanta Center
08:37AM 33.7453 -84.9131 178° South 299 344 8,100 -1,020 Descending Atlanta Center
08:38AM 33.6597 -84.9072 177° South 289 333 7,000 -540 Descending Atlanta Center
08:39AM 33.6225 -84.8497 128° Southeast 209 241 7,100 -180 Climbing Atlanta Center
08:40AM 33.6333 -84.8000 75° East 241 277 6,800 -1,140 Descending Atlanta TRACON
08:40AM 33.6333 -84.7333 90° East 226 260 5,400 -1,260 Descending Atlanta TRACON
08:42AM 33.6333 -84.6500 90° East 215 247 4,300 -1,080 Descending Atlanta TRACON
08:43AM 33.6333 -84.5833 90° East 195 224 3,200 -1,080 Descending Atlanta TRACON
08:44AM 33.6333 -84.5167 90° East 172 198 2,200 -900 Descending Atlanta TRACON
08:45AM 33.6333 -84.4667 90° East 141 162 1,500 -720 Descending Atlanta TRACON
08:47AM 33.6367 -84.4279 North  Level Estimated
08:54AM 33.6367 -84.4279 North  Level Estimated